• Join FlightAware (Why Join?)
  • Login
  • US Flag 
01:34AM EDT


 

Airport Tracker/Info


-or-


 

Live Flight TrackerFlight Track Log ✈ LBQ792 ✈ 26-Apr-2013 ✈ KAGC - KIAD

Flight Track Log - Related Links

Times and Time Zones

All times are in EDT time to prevent confusion due to time zone crossing. See the LBQ792 flight status page for this flight to view local times or setup timezone preferences in your user account.

Time Position Orientation Groundspeed Altitude Reporting Facility
EDT Latitude Longitude Course Direction KTS MPH feet Rate Location/Type
12:45AM 40.2717 -79.9408 169° South 155 178 4,700  Level Cleveland Center
12:46AM 40.2258 -79.9333 173° South 160 184 6,300 1,500 Climbing Cleveland Center
12:47AM 40.1800 -79.9281 175° South 165 190 7,800 1,500 Climbing Cleveland Center
12:48AM 40.1278 -79.9233 176° South 171 197 9,300 1,440 Climbing Cleveland Center
12:49AM 39.9782 -79.8833 180° South  Level FlightAware Approximate
12:49AM 40.0797 -79.9019 161° South 182 209 10,700  Level Cleveland Center
12:50AM 40.0503 -79.8453 124° Southeast 172 198 12,100 1,440 Climbing Cleveland Center
12:51AM 40.0247 -79.7861 119° Southeast 178 205 13,600 1,320 Climbing Cleveland Center
12:52AM 39.9994 -79.7239 118° Southeast 183 211 14,800 660 Climbing Cleveland Center
12:53AM 39.9694 -79.6511 118° Southeast 208 239 15,000 60 Climbing Cleveland Center
12:54AM 39.9333 -79.5678 119° Southeast 239 275 15,000  Level Cleveland Center
12:55AM 39.8972 -79.4844 119° Southeast 256 295 15,000  Level Cleveland Center
12:56AM 39.8608 -79.3958 118° Southeast 262 302 15,000  Level Cleveland Center
12:57AM 39.8244 -79.3100 119° Southeast 262 302 15,000  Level Cleveland Center
12:58AM 39.7861 -79.2233 120° Southeast 272 313 15,000  Level Washington Center
12:59AM 39.7469 -79.1378 121° Southeast 272 313 15,000  Level Washington Center
01:00AM 39.7119 -79.0525 118° Southeast 272 313 15,000  Level Washington Center
01:01AM 39.6728 -78.9669 121° Southeast 272 313 15,000  Level Washington Center
01:02AM 39.6256 -78.8650 121° Southeast 291 335 15,000  Level Washington Center
01:03AM 39.5842 -78.7797 122° Southeast 285 328 15,000 -300 Level Washington Center
01:04AM 39.5444 -78.6944 121° Southeast 285 328 14,500 -720 Descending Washington Center
01:05AM 39.5069 -78.6122 121° Southeast 285 328 13,600 -960 Descending Washington Center
01:06AM 39.4614 -78.5189 122° Southeast 290 334 12,700 -960 Descending Washington Center
01:07AM 39.4197 -78.4311 122° Southeast 290 334 11,700 -1,020 Descending Washington Center
01:08AM 39.3758 -78.3436 123° Southeast 285 328 10,700 -1,020 Descending Washington Center
01:09AM 39.3403 -78.2589 118° Southeast 280 322 9,700 -900 Descending Washington Center
01:10AM 39.3025 -78.1744 120° Southeast 280 322 8,900 -420 Descending Washington Center
01:11AM 39.2603 -78.1033 127° Southeast 266 306 8,900 -60 Level Washington Center
01:12AM 39.2200 -78.0350 127° Southeast 253 291 8,800 -600 Descending Washington Center
01:13AM 39.1714 -77.9664 132° Southeast 248 285 7,800 -1,020 Descending Washington Center
01:14AM 39.1269 -77.8981 130° Southeast 248 285 6,800 -780 Descending Washington Center
01:16AM 39.0991 -77.7727 117° Southeast  Level FlightAware Approximate
01:18AM 38.9500 -77.6167 123° Southeast 219 252 4,000  Level Potomac TRACON
01:19AM 38.9167 -77.5500 123° Southeast 199 229 3,000 -960 Descending Potomac TRACON
01:20AM 38.9167 -77.5000 90° East 154 177 2,100 900 Descending Potomac TRACON
01:21AM 38.9167 -77.4667 90° East 112 129 4,900 -780 Climbing Potomac TRACON
01:22AM 38.9500 -77.4500 21° North 121 139 600 -4,320 Descending Potomac TRACON
01:23AM 38.9474 -77.4599 123° Southeast  Level Estimated
01:24AM 38.9474 -77.4599 123° Southeast  Level Estimated
01:31AM 38.9474 -77.4599 123° Southeast  Level Estimated
01:32AM 38.9474 -77.4599 123° Southeast  Level Estimated
01:33AM 38.9474 -77.4599 123° Southeast  Level Estimated